TimeWEST,TemperatureF,Dew PointF,Humidity,Sea Level PressureIn,VisibilityMPH,Wind Direction,Wind SpeedMPH,Gust SpeedMPH,PrecipitationIn,Events,Conditions,WindDirDegrees,DateUTC
1:00 AM,65,45,37,29.82,6,SSW,2.3,,,,,210,2014-05-03 00:00:00
1:00 AM,66.2,44.6,46,29.89,-9999.0,SSW,2.3,-,N/A,,Clear,210,2014-05-03 00:00:00
4:00 AM,60,47,51,29.85,6,Calm,Calm,,,,,,2014-05-03 03:00:00
4:00 AM,60.8,46.4,59,29.89,-9999.0,Calm,Calm,-,N/A,,Clear,0,2014-05-03 03:00:00
7:00 AM,53,46,70,29.88,6,SE,4.6,,,,,140,2014-05-03 06:00:00
7:00 AM,53.6,46.4,77,29.89,-9999.0,SE,4.6,-,N/A,,Clear,140,2014-05-03 06:00:00
10:00 AM,75,47,27,29.84,6,NNE,9.2,,,,,20,2014-05-03 09:00:00
10:00 AM,73.4,48.2,41,29.89,-9999.0,NNE,9.2,-,N/A,,Clear,20,2014-05-03 09:00:00
1:00 PM,85,46,16,29.78,6,NE,11.5,,,,Scattered Clouds,50,2014-05-03 12:00:00
1:00 PM,84.2,46.4,27,29.89,6.2,ENE,12.7,-,N/A,,Partly Cloudy,60,2014-05-03 12:00:00
3:00 PM,87.8,46.4,24,29.86,4.3,North,9.2,-,N/A,,Unknown,350,2014-05-03 14:00:00
4:00 PM,88,39,10,29.72,6,North,8.1,,,,Scattered Clouds,10,2014-05-03 15:00:00
4:00 PM,89.6,37.4,16,29.83,6.2,North,8.1,-,N/A,,Partly Cloudy,350,2014-05-03 15:00:00
5:00 PM,89.6,41.0,18,29.83,5.0,North,-9999.0,-,N/A,,Unknown,0,2014-05-03 16:00:00
6:00 PM,87.8,41.0,19,29.83,6.2,NNW,8.1,-,N/A,,Partly Cloudy,330,2014-05-03 17:00:00
7:00 PM,85,45,15,29.72,7,North,11.5,,,,Scattered Clouds,0,2014-05-03 18:00:00
7:00 PM,84.2,44.6,25,29.83,-9999.0,North,10.4,-,N/A,,Clear,360,2014-05-03 18:00:00
8:00 PM,78.8,46.4,32,29.86,-9999.0,North,-9999.0,-,N/A,,Clear,0,2014-05-03 19:00:00
10:00 PM,69,48,36,29.86,6,SSW,8.1,,,,,200,2014-05-03 21:00:00
10:00 PM,68.0,48.2,49,29.92,-9999.0,SSW,8.1,-,N/A,,Clear,200,2014-05-03 21:00:00